Deer Meadows, Washington
Current Conditions -  °F | °C
As of 1:58 PM on Monday 20 Oct 2014 (Local Time) from KSKA Reporting Station
Few Clouds Few Clouds  
Wind Chill: 68°   Ceiling: Unl
Heat Index: 68°   Visibility: 10mi
Dew Point: 45°   Wind: 12mph
Humidity: 43%   Direction: 200°SSW
Pressure: 29.76"   Gusts: NA
Location:  47.7035°N, 118.192°W
Report Text: KSKA 202058Z AUTO 20010KT 10SM FEW210 20/07 A2976 RMK AO2 SLP076 T02010073 56004
Loading
Personal Weather Stations






























Interactive Weather Map
Tropical Storm Tracking
New forecast layout! Learn more

10-Day Weather Forecast

Advertisements
Track Severe Weather on mobile